Station Historical Data
Daily Summary for January 13, 2018 Units:  English    Metric   Both
« Previous Day
Next Day »
Daily Weekly Monthly Yearly Custom
  High: Low: Average:
Temperature: 57.4 °F 21.7 °F 35.6 °F
Dew Point: 57.1 °F 9.6 °F 28.1 °F
Humidity: 99 % 56 % 75 %
Wind Speed: 12.0 mph 0.0 mph 3.7 mph
Wind Gust: 27.0 mph - -
Wind:- - SSW
Pressure: 30.53 in 29.38 in -
Precipitation: 0.06 in    
Historical Graphs
 
 
Tabular Data for January 13, 2018
Time Temperature Dew Point Pressure Wind Wind Speed Wind Gust Humidity Rainfall Rate (Hourly)
00:05 55.9 °F 55.6 °F 29.47 in East 1.0 mph 7.0 mph 99 % 0.03 in
00:12 55.5 °F 55.2 °F 29.46 in Calm   7.0 mph 99 % 0.03 in
00:21 54.6 °F 54.0 °F 29.46 in Calm   6.0 mph 98 % 0.03 in
00:28 54.1 °F 53.5 °F 29.44 in ESE 2.0 mph 7.0 mph 98 % 0.02 in
00:42 54.0 °F 53.7 °F 29.42 in ESE 1.0 mph 7.0 mph 99 % 0.04 in
00:55 54.3 °F 54.0 °F 29.40 in ESE 2.0 mph 8.0 mph 99 % 0.03 in
01:12 54.8 °F 54.5 °F 29.38 in East 1.0 mph 8.0 mph 99 % 0.02 in
01:57 57.4 °F 57.1 °F 29.43 in South 11.0 mph 27.0 mph 99 % 0.02 in
02:19 51.0 °F 50.4 °F 29.40 in WSW 5.0 mph 26.0 mph 98 % 0.02 in
02:33 50.2 °F 49.6 °F 29.42 in WSW 9.0 mph 16.0 mph 98 % 0.02 in
02:44 49.8 °F 49.2 °F 29.42 in West 3.0 mph 16.0 mph 98 % 0.01 in
02:54 49.6 °F 48.8 °F 29.45 in WSW 1.0 mph 13.0 mph 97 % 0.00 in
03:12 49.3 °F 48.5 °F 29.48 in SW 3.0 mph 12.0 mph 97 % 0.00 in
03:22 49.1 °F 48.3 °F 29.49 in WSW 4.0 mph 12.0 mph 97 % 0.00 in
03:32 48.9 °F 48.1 °F 29.51 in Calm   6.0 mph 97 % 0.00 in
03:41 48.8 °F 48.0 °F 29.52 in Calm   7.0 mph 97 % 0.00 in
04:00 47.9 °F 46.8 °F 29.54 in WSW 4.0 mph 8.0 mph 96 % 0.00 in
04:28 46.8 °F 45.4 °F 29.57 in Calm   13.0 mph 95 % 0.00 in
04:36 46.7 °F 45.3 °F 29.58 in WSW 1.0 mph 10.0 mph 95 % 0.00 in
04:44 46.4 °F 45.0 °F 29.59 in WSW 1.0 mph 16.0 mph 95 % 0.00 in
04:49 46.1 °F 44.7 °F 29.59 in West 3.0 mph 17.0 mph 95 % 0.00 in
04:56 45.9 °F 44.2 °F 29.60 in SW 11.0 mph 17.0 mph 94 % 0.00 in
05:18 45.2 °F 43.5 °F 29.63 in WSW 5.0 mph 13.0 mph 94 % 0.01 in
05:23 45.0 °F 43.3 °F 29.64 in WSW 9.0 mph 13.0 mph 94 % 0.01 in
05:35 44.3 °F 42.6 °F 29.66 in Calm   13.0 mph 94 % 0.01 in
06:02 42.7 °F 40.5 °F 29.70 in NW 8.0 mph 16.0 mph 92 % 0.01 in
06:11 42.4 °F 40.2 °F 29.72 in WNW 5.0 mph 16.0 mph 92 % 0.01 in
06:39 41.1 °F 38.1 °F 29.77 in WSW 8.0 mph 15.0 mph 89 % 0.00 in
06:46 40.2 °F 36.9 °F 29.78 in ENE 3.0 mph 22.0 mph 88 % 0.00 in
07:28 36.8 °F 33.0 °F 29.84 in North 4.0 mph 15.0 mph 86 % 0.00 in
07:52 36.1 °F 32.3 °F 29.88 in WSW 1.0 mph 12.0 mph 86 % 0.00 in
07:57 35.9 °F 32.1 °F 29.87 in West 4.0 mph 12.0 mph 86 % 0.00 in
08:07 35.7 °F 31.9 °F 29.89 in North 6.0 mph 12.0 mph 86 % 0.00 in
08:14 35.3 °F 30.9 °F 29.90 in West 10.0 mph 16.0 mph 84 % 0.00 in
08:28 34.7 °F 30.1 °F 29.92 in North 7.0 mph 16.0 mph 83 % 0.00 in
08:35 34.4 °F 30.0 °F 29.92 in North 5.0 mph 11.0 mph 84 % 0.00 in
08:53 33.8 °F 29.5 °F 29.94 in North 6.0 mph 15.0 mph 84 % 0.00 in
08:59 33.7 °F 29.4 °F 29.95 in WNW 5.0 mph 15.0 mph 84 % 0.00 in
09:09 33.5 °F 28.9 °F 29.97 in North 10.0 mph 15.0 mph 83 % 0.00 in
09:15 33.4 °F 28.8 °F 29.98 in WSW 5.0 mph 15.0 mph 83 % 0.00 in
09:27 33.3 °F 29.0 °F 29.99 in WSW 2.0 mph 12.0 mph 84 % 0.00 in
09:44 33.0 °F 28.7 °F 30.00 in WNW 2.0 mph 11.0 mph 84 % 0.00 in
09:57 33.3 °F 29.0 °F 30.01 in Calm   11.0 mph 84 % 0.00 in
10:02 33.4 °F 28.8 °F 30.01 in North 1.0 mph 9.0 mph 83 % 0.00 in
10:11 33.4 °F 28.2 °F 30.02 in NE 6.0 mph 10.0 mph 81 % 0.00 in
10:36 34.3 °F 27.2 °F 30.03 in WSW 12.0 mph 20.0 mph 75 % 0.00 in
10:41 34.3 °F 27.2 °F 30.03 in North 4.0 mph 20.0 mph 75 % 0.00 in
10:49 34.4 °F 26.7 °F 30.03 in NW 3.0 mph 13.0 mph 73 % 0.00 in
11:11 34.4 °F 27.0 °F 30.04 in Calm   12.0 mph 74 % 0.00 in
11:33 34.1 °F 26.4 °F 30.05 in ENE 2.0 mph 15.0 mph 73 % 0.00 in
11:42 34.0 °F 26.0 °F 30.05 in West 5.0 mph 15.0 mph 72 % 0.00 in
11:48 34.1 °F 26.0 °F 30.06 in NW 8.0 mph 15.0 mph 72 % 0.00 in
11:53 34.0 °F 25.6 °F 30.06 in WNW 2.0 mph 15.0 mph 71 % 0.00 in
12:06 34.3 °F 25.5 °F 30.06 in NW 9.0 mph 12.0 mph 70 % 0.00 in
12:19 34.3 °F 25.5 °F 30.06 in WNW 6.0 mph 15.0 mph 70 % 0.00 in
12:25 34.3 °F 24.8 °F 30.06 in NNE 5.0 mph 15.0 mph 68 % 0.00 in
12:44 34.4 °F 24.6 °F 30.07 in WNW 4.0 mph 14.0 mph 67 % 0.00 in
12:49 34.5 °F 24.7 °F 30.08 in NW 2.0 mph 17.0 mph 67 % 0.00 in
13:41 34.3 °F 23.5 °F 30.11 in West 2.0 mph 17.0 mph 64 % 0.01 in
13:47 34.4 °F 23.9 °F 30.11 in WSW 3.0 mph 14.0 mph 65 % 0.01 in
14:25 33.9 °F 22.7 °F 30.15 in NW 4.0 mph 14.0 mph 63 % 0.00 in
14:31 33.8 °F 22.2 °F 30.16 in SSW 2.0 mph 13.0 mph 62 % 0.00 in
14:43 33.8 °F 22.2 °F 30.16 in WNW 7.0 mph 13.0 mph 62 % 0.00 in
14:52 33.9 °F 22.3 °F 30.17 in WNW 5.0 mph 12.0 mph 62 % 0.00 in
15:06 34.1 °F 22.1 °F 30.18 in North 10.0 mph 11.0 mph 61 % 0.00 in
15:19 33.8 °F 22.2 °F 30.19 in North 4.0 mph 13.0 mph 62 % 0.00 in
16:08 32.9 °F 21.0 °F 30.23 in NW 1.0 mph 12.0 mph 61 % 0.00 in
16:15 32.5 °F 20.2 °F 30.24 in WSW 2.0 mph 13.0 mph 60 % 0.00 in
16:28 32.2 °F 19.9 °F 30.25 in WNW 1.0 mph 18.0 mph 60 % 0.00 in
16:30 32.2 °F 19.9 °F 30.25 in SW 4.0 mph 18.0 mph 60 % 0.00 in
16:46 31.6 °F 18.9 °F 30.26 in NW 4.0 mph 16.0 mph 59 % 0.00 in
17:03 31.0 °F 17.6 °F 30.27 in WSW 5.0 mph 11.0 mph 57 % 0.00 in
17:09 30.8 °F 17.4 °F 30.27 in SW 3.0 mph 11.0 mph 57 % 0.00 in
17:20 30.6 °F 16.8 °F 30.28 in North 3.0 mph 12.0 mph 56 % 0.00 in
17:26 30.5 °F 16.7 °F 30.28 in NW 1.0 mph 12.0 mph 56 % 0.00 in
17:42 30.3 °F 16.5 °F 30.30 in WNW 2.0 mph 12.0 mph 56 % 0.00 in
18:17 29.3 °F 16.7 °F 30.32 in Calm   12.0 mph 59 % 0.00 in
18:27 28.9 °F 16.4 °F 30.32 in Calm   11.0 mph 59 % 0.00 in
18:36 28.7 °F 16.6 °F 30.33 in NNE 7.0 mph 14.0 mph 60 % 0.00 in
18:48 28.5 °F 16.4 °F 30.34 in WNW 5.0 mph 14.0 mph 60 % 0.00 in
18:54 28.4 °F 16.3 °F 30.34 in NW 1.0 mph 10.0 mph 60 % 0.00 in
19:21 27.8 °F 15.8 °F 30.35 in WNW 2.0 mph 12.0 mph 60 % 0.00 in
19:27 27.6 °F 15.6 °F 30.36 in NW 4.0 mph 12.0 mph 60 % 0.00 in
19:42 27.4 °F 15.4 °F 30.36 in NW 5.0 mph 11.0 mph 60 % 0.00 in
19:47 27.2 °F 15.2 °F 30.36 in West 2.0 mph 9.0 mph 60 % 0.00 in
19:52 27.1 °F 15.5 °F 30.37 in North 4.0 mph 9.0 mph 61 % 0.00 in
20:19 26.3 °F 15.1 °F 30.40 in Calm   10.0 mph 62 % 0.00 in
20:28 26.0 °F 14.8 °F 30.41 in NW 3.0 mph 8.0 mph 62 % 0.00 in
20:45 25.5 °F 14.3 °F 30.42 in North 3.0 mph 9.0 mph 62 % 0.00 in
21:09 25.1 °F 14.0 °F 30.44 in NW 2.0 mph 9.0 mph 62 % 0.00 in
21:16 24.8 °F 13.3 °F 30.45 in NW 3.0 mph 12.0 mph 61 % 0.00 in
21:23 24.7 °F 12.8 °F 30.46 in West 5.0 mph 12.0 mph 60 % 0.00 in
21:30 24.5 °F 12.6 °F 30.46 in NW 6.0 mph 12.0 mph 60 % 0.00 in
21:36 24.4 °F 11.8 °F 30.46 in North 5.0 mph 14.0 mph 58 % 0.00 in
21:47 24.2 °F 11.6 °F 30.47 in North 7.0 mph 14.0 mph 58 % 0.00 in
22:06 23.6 °F 11.0 °F 30.49 in Calm   13.0 mph 58 % 0.00 in
22:13 23.4 °F 10.8 °F 30.50 in Calm   11.0 mph 58 % 0.00 in
22:20 23.3 °F 11.1 °F 30.50 in North 3.0 mph 11.0 mph 59 % 0.00 in
22:27 23.2 °F 11.4 °F 30.50 in WNW 2.0 mph 11.0 mph 60 % 0.00 in
22:33 23.0 °F 11.2 °F 30.50 in North 2.0 mph 9.0 mph 60 % 0.00 in
22:42 22.9 °F 10.7 °F 30.51 in North 4.0 mph 9.0 mph 59 % 0.00 in
23:08 22.4 °F 10.3 °F 30.52 in NW 4.0 mph 10.0 mph 59 % 0.00 in
23:14 22.3 °F 10.2 °F 30.53 in ENE 3.0 mph 10.0 mph 59 % 0.00 in
23:41 21.8 °F 9.7 °F 30.53 in North 5.0 mph 12.0 mph 59 % 0.00 in
23:47 21.7 °F 9.6 °F 30.53 in NW 3.0 mph 11.0 mph 59 % 0.00 in
MarylandWx.com
Compliments of Weather Underground - 5.5 mb